sensor_id;sensor_type;location;lat;lon;timestamp;pressure;altitude;pressure_sealevel;temperature;humidity
75996;BME280;64681;49.738;9.004;2023-07-31T00:02:14;99381.00;;;18.23;60.88
75996;BME280;64681;49.738;9.004;2023-07-31T00:04:40;99375.25;;;18.35;60.77
75996;BME280;64681;49.738;9.004;2023-07-31T00:07:06;99367.09;;;18.17;59.34
75996;BME280;64681;49.738;9.004;2023-07-31T00:09:32;99368.69;;;18.36;59.09
75996;BME280;64681;49.738;9.004;2023-07-31T00:11:58;99364.88;;;18.66;58.34
75996;BME280;64681;49.738;9.004;2023-07-31T00:14:24;99361.44;;;18.73;58.14
75996;BME280;64681;49.738;9.004;2023-07-31T00:16:50;99360.31;;;18.92;57.28
75996;BME280;64681;49.738;9.004;2023-07-31T00:19:15;99365.72;;;18.95;57.59
75996;BME280;64681;49.738;9.004;2023-07-31T00:21:41;99360.69;;;19.16;56.63
75996;BME280;64681;49.738;9.004;2023-07-31T00:24:06;99355.66;;;19.10;56.11
75996;BME280;64681;49.738;9.004;2023-07-31T00:26:32;99352.19;;;19.06;56.81
75996;BME280;64681;49.738;9.004;2023-07-31T00:28:57;99361.06;;;19.18;56.72
75996;BME280;64681;49.738;9.004;2023-07-31T00:31:23;99352.56;;;19.26;56.31
75996;BME280;64681;49.738;9.004;2023-07-31T00:33:48;99336.69;;;19.18;56.42
75996;BME280;64681;49.738;9.004;2023-07-31T00:36:14;99347.91;;;19.23;55.20
75996;BME280;64681;49.738;9.004;2023-07-31T00:38:39;99347.88;;;19.34;55.60
75996;BME280;64681;49.738;9.004;2023-07-31T00:41:05;99346.69;;;19.53;53.85
75996;BME280;64681;49.738;9.004;2023-07-31T00:43:31;99344.78;;;19.32;54.84
75996;BME280;64681;49.738;9.004;2023-07-31T00:45:56;99355.59;;;19.50;54.76
75996;BME280;64681;49.738;9.004;2023-07-31T00:48:23;99347.81;;;19.59;54.06
75996;BME280;64681;49.738;9.004;2023-07-31T00:50:49;99346.72;;;19.46;54.65
75996;BME280;64681;49.738;9.004;2023-07-31T00:53:15;99347.09;;;19.52;54.39
75996;BME280;64681;49.738;9.004;2023-07-31T00:55:42;99340.13;;;19.47;54.11
75996;BME280;64681;49.738;9.004;2023-07-31T00:58:08;99349.81;;;19.37;54.61
75996;BME280;64681;49.738;9.004;2023-07-31T01:00:33;99345.19;;;19.30;55.05
75996;BME280;64681;49.738;9.004;2023-07-31T01:03:00;99342.06;;;19.57;53.84
75996;BME280;64681;49.738;9.004;2023-07-31T01:05:36;99328.09;;;19.66;53.81
75996;BME280;64681;49.738;9.004;2023-07-31T01:08:15;99331.19;;;19.61;53.81
75996;BME280;64681;49.738;9.004;2023-07-31T01:10:53;99330.81;;;19.55;54.05
75996;BME280;64681;49.738;9.004;2023-07-31T01:13:21;99333.53;;;19.52;53.54
75996;BME280;64681;49.738;9.004;2023-07-31T01:15:47;99332.38;;;19.60;54.01
75996;BME280;64681;49.738;9.004;2023-07-31T01:18:12;99321.88;;;19.76;53.38
75996;BME280;64681;49.738;9.004;2023-07-31T01:20:42;99314.94;;;19.65;53.99
75996;BME280;64681;49.738;9.004;2023-07-31T01:23:51;99323.00;;;19.83;53.07
75996;BME280;64681;49.738;9.004;2023-07-31T01:26:28;99318.75;;;19.78;53.21
75996;BME280;64681;49.738;9.004;2023-07-31T01:29:01;99326.16;;;19.56;54.33
75996;BME280;64681;49.738;9.004;2023-07-31T01:31:30;99328.56;;;19.28;55.23
75996;BME280;64681;49.738;9.004;2023-07-31T01:34:00;99323.84;;;19.58;53.89
75996;BME280;64681;49.738;9.004;2023-07-31T01:36:28;99326.16;;;19.63;54.00
75996;BME280;64681;49.738;9.004;2023-07-31T01:38:59;99320.41;;;19.54;53.87
75996;BME280;64681;49.738;9.004;2023-07-31T01:41:25;99316.47;;;19.62;53.55
75996;BME280;64681;49.738;9.004;2023-07-31T01:43:51;99321.06;;;19.76;53.94
75996;BME280;64681;49.738;9.004;2023-07-31T01:46:16;99311.78;;;19.81;53.59
75996;BME280;64681;49.738;9.004;2023-07-31T01:48:42;99314.09;;;19.75;53.35
75996;BME280;64681;49.738;9.004;2023-07-31T01:51:07;99311.69;;;20.02;52.21
75996;BME280;64681;49.738;9.004;2023-07-31T01:53:33;99311.34;;;19.97;52.86
75996;BME280;64681;49.738;9.004;2023-07-31T01:55:59;99310.56;;;19.96;53.40
75996;BME280;64681;49.738;9.004;2023-07-31T01:58:24;99303.94;;;20.08;52.31
75996;BME280;64681;49.738;9.004;2023-07-31T02:00:50;99305.59;;;19.87;53.93
75996;BME280;64681;49.738;9.004;2023-07-31T02:03:15;99307.16;;;19.74;53.65
75996;BME280;64681;49.738;9.004;2023-07-31T02:05:48;99298.69;;;19.65;54.00
75996;BME280;64681;49.738;9.004;2023-07-31T02:08:15;99301.69;;;19.81;54.54
75996;BME280;64681;49.738;9.004;2023-07-31T02:10:41;99299.06;;;19.59;53.41
75996;BME280;64681;49.738;9.004;2023-07-31T02:13:07;99304.13;;;19.57;54.06
75996;BME280;64681;49.738;9.004;2023-07-31T02:15:33;99292.03;;;19.84;53.66
75996;BME280;64681;49.738;9.004;2023-07-31T02:17:59;99299.00;;;19.88;53.41
75996;BME280;64681;49.738;9.004;2023-07-31T02:20:24;99289.72;;;19.75;53.52
75996;BME280;64681;49.738;9.004;2023-07-31T02:22:50;99293.56;;;19.81;54.09
75996;BME280;64681;49.738;9.004;2023-07-31T02:25:15;99287.50;;;19.52;54.80
75996;BME280;64681;49.738;9.004;2023-07-31T02:27:41;99277.44;;;19.49;54.79
75996;BME280;64681;49.738;9.004;2023-07-31T02:30:07;99275.91;;;19.44;54.68
75996;BME280;64681;49.738;9.004;2023-07-31T02:32:33;99283.22;;;19.54;54.41
75996;BME280;64681;49.738;9.004;2023-07-31T02:34:58;99283.25;;;19.51;54.81
75996;BME280;64681;49.738;9.004;2023-07-31T02:37:25;99276.75;;;19.26;54.80
75996;BME280;64681;49.738;9.004;2023-07-31T02:39:51;99286.75;;;19.44;55.36
75996;BME280;64681;49.738;9.004;2023-07-31T02:42:16;99274.78;;;19.30;55.85
75996;BME280;64681;49.738;9.004;2023-07-31T02:44:42;99272.44;;;19.47;54.99
75996;BME280;64681;49.738;9.004;2023-07-31T02:47:07;99272.38;;;19.61;54.74
75996;BME280;64681;49.738;9.004;2023-07-31T02:49:33;99278.28;;;19.38;55.22
75996;BME280;64681;49.738;9.004;2023-07-31T02:51:59;99268.63;;;19.23;55.14
75996;BME280;64681;49.738;9.004;2023-07-31T02:54:24;99267.09;;;19.25;55.22
75996;BME280;64681;49.738;9.004;2023-07-31T02:56:50;99255.47;;;19.21;55.46
75996;BME280;64681;49.738;9.004;2023-07-31T02:59:16;99261.31;;;19.05;55.74
75996;BME280;64681;49.738;9.004;2023-07-31T03:01:42;99266.38;;;18.92;56.68
75996;BME280;64681;49.738;9.004;2023-07-31T03:04:07;99269.81;;;18.89;56.60
75996;BME280;64681;49.738;9.004;2023-07-31T03:06:33;99262.06;;;19.13;56.38
75996;BME280;64681;49.738;9.004;2023-07-31T03:08:58;99276.75;;;19.12;56.08
75996;BME280;64681;49.738;9.004;2023-07-31T03:11:24;99271.38;;;18.94;56.85
75996;BME280;64681;49.738;9.004;2023-07-31T03:13:50;99267.50;;;19.06;57.16
75996;BME280;64681;49.738;9.004;2023-07-31T03:16:15;99260.94;;;19.03;56.91
75996;BME280;64681;49.738;9.004;2023-07-31T03:18:41;99269.44;;;19.02;56.85
75996;BME280;64681;49.738;9.004;2023-07-31T03:21:06;99265.19;;;19.11;56.75
75996;BME280;64681;49.738;9.004;2023-07-31T03:23:32;99269.44;;;19.05;56.33
75996;BME280;64681;49.738;9.004;2023-07-31T03:26:06;99269.44;;;19.12;56.47
75996;BME280;64681;49.738;9.004;2023-07-31T03:28:32;99275.59;;;19.17;56.01
75996;BME280;64681;49.738;9.004;2023-07-31T03:30:58;99269.44;;;19.02;57.08
75996;BME280;64681;49.738;9.004;2023-07-31T03:33:23;99259.00;;;19.07;56.46
75996;BME280;64681;49.738;9.004;2023-07-31T03:35:49;99262.50;;;18.64;57.71
75996;BME280;64681;49.738;9.004;2023-07-31T03:38:14;99267.91;;;18.93;57.24
75996;BME280;64681;49.738;9.004;2023-07-31T03:40:40;99271.75;;;18.85;57.21
75996;BME280;64681;49.738;9.004;2023-07-31T03:43:05;99267.13;;;19.00;56.67
75996;BME280;64681;49.738;9.004;2023-07-31T03:45:31;99272.53;;;19.11;56.04
75996;BME280;64681;49.738;9.004;2023-07-31T03:47:57;99264.75;;;19.17;55.97
75996;BME280;64681;49.738;9.004;2023-07-31T03:50:22;99262.09;;;18.84;57.77
75996;BME280;64681;49.738;9.004;2023-07-31T03:52:48;99252.81;;;19.00;57.54
75996;BME280;64681;49.738;9.004;2023-07-31T03:55:13;99247.41;;;18.92;56.67
75996;BME280;64681;49.738;9.004;2023-07-31T03:57:39;99248.94;;;19.04;56.83
75996;BME280;64681;49.738;9.004;2023-07-31T04:00:05;99249.72;;;18.83;57.11
75996;BME280;64681;49.738;9.004;2023-07-31T04:02:31;99249.38;;;18.95;57.10
75996;BME280;64681;49.738;9.004;2023-07-31T04:04:56;99252.41;;;19.01;56.67
75996;BME280;64681;49.738;9.004;2023-07-31T04:07:22;99250.88;;;18.89;56.96
75996;BME280;64681;49.738;9.004;2023-07-31T04:09:47;99251.25;;;19.09;56.70
75996;BME280;64681;49.738;9.004;2023-07-31T04:12:13;99252.41;;;19.01;57.08
75996;BME280;64681;49.738;9.004;2023-07-31T04:14:38;99255.91;;;19.12;57.28
75996;BME280;64681;49.738;9.004;2023-07-31T04:17:04;99257.06;;;19.08;57.19
75996;BME280;64681;49.738;9.004;2023-07-31T04:19:29;99254.72;;;19.24;56.08
75996;BME280;64681;49.738;9.004;2023-07-31T04:21:55;99247.78;;;19.12;56.83
75996;BME280;64681;49.738;9.004;2023-07-31T04:24:20;99247.78;;;19.05;57.55
75996;BME280;64681;49.738;9.004;2023-07-31T04:26:50;99259.00;;;19.07;56.70
75996;BME280;64681;49.738;9.004;2023-07-31T04:29:16;99258.59;;;19.16;56.74
75996;BME280;64681;49.738;9.004;2023-07-31T04:31:41;99254.31;;;19.19;56.46
75996;BME280;64681;49.738;9.004;2023-07-31T04:34:07;99246.19;;;19.26;56.11
75996;BME280;64681;49.738;9.004;2023-07-31T04:36:34;99247.34;;;19.21;56.10
75996;BME280;64681;49.738;9.004;2023-07-31T04:39:00;99242.66;;;19.43;54.96
75996;BME280;64681;49.738;9.004;2023-07-31T04:41:26;99245.00;;;19.34;55.90
75996;BME280;64681;49.738;9.004;2023-07-31T04:43:51;99244.25;;;19.34;55.83
75996;BME280;64681;49.738;9.004;2023-07-31T04:46:17;99238.09;;;19.11;56.64
75996;BME280;64681;49.738;9.004;2023-07-31T04:48:43;99229.53;;;19.31;55.87
75996;BME280;64681;49.738;9.004;2023-07-31T04:51:08;99240.00;;;19.29;56.65
75996;BME280;64681;49.738;9.004;2023-07-31T04:53:37;99239.59;;;19.34;55.77
75996;BME280;64681;49.738;9.004;2023-07-31T04:56:02;99232.94;;;19.53;55.50
75996;BME280;64681;49.738;9.004;2023-07-31T04:58:28;99227.78;;;19.81;54.76
75996;BME280;64681;49.738;9.004;2023-07-31T05:00:54;99224.31;;;19.76;54.89
75996;BME280;64681;49.738;9.004;2023-07-31T05:03:19;99225.44;;;19.83;53.88
75996;BME280;64681;49.738;9.004;2023-07-31T05:05:45;99223.50;;;19.87;54.48
75996;BME280;64681;49.738;9.004;2023-07-31T05:08:10;99225.38;;;19.97;54.21
75996;BME280;64681;49.738;9.004;2023-07-31T05:10:36;99222.75;;;19.86;54.94
75996;BME280;64681;49.738;9.004;2023-07-31T05:13:02;99228.47;;;20.03;53.81
75996;BME280;64681;49.738;9.004;2023-07-31T05:15:28;99229.72;;;19.87;54.52
75996;BME280;64681;49.738;9.004;2023-07-31T05:17:53;99227.25;;;20.11;54.09
75996;BME280;64681;49.738;9.004;2023-07-31T05:20:19;99236.56;;;20.06;54.57
75996;BME280;64681;49.738;9.004;2023-07-31T05:22:45;99235.03;;;20.02;53.84
75996;BME280;64681;49.738;9.004;2023-07-31T05:25:10;99239.56;;;20.19;54.33
75996;BME280;64681;49.738;9.004;2023-07-31T05:27:36;99227.78;;;20.40;53.61
75996;BME280;64681;49.738;9.004;2023-07-31T05:30:01;99227.53;;;20.20;53.53
75996;BME280;64681;49.738;9.004;2023-07-31T05:32:27;99227.69;;;20.51;53.17
75996;BME280;64681;49.738;9.004;2023-07-31T05:34:53;99224.69;;;20.38;53.23
75996;BME280;64681;49.738;9.004;2023-07-31T05:37:19;99219.44;;;20.66;52.65
75996;BME280;64681;49.738;9.004;2023-07-31T05:39:45;99224.06;;;20.69;52.96
75996;BME280;64681;49.738;9.004;2023-07-31T05:42:10;99225.69;;;20.63;53.02
75996;BME280;64681;49.738;9.004;2023-07-31T05:44:36;99221.59;;;20.89;52.46
75996;BME280;64681;49.738;9.004;2023-07-31T05:47:01;99223.47;;;20.92;52.28
75996;BME280;64681;49.738;9.004;2023-07-31T05:49:27;99225.59;;;21.12;51.35
75996;BME280;64681;49.738;9.004;2023-07-31T05:51:52;99220.25;;;21.05;52.87
75996;BME280;64681;49.738;9.004;2023-07-31T05:54:18;99231.19;;;21.32;51.64
75996;BME280;64681;49.738;9.004;2023-07-31T05:56:44;99231.75;;;21.50;50.65
75996;BME280;64681;49.738;9.004;2023-07-31T05:59:12;99229.56;;;21.03;52.41
75996;BME280;64681;49.738;9.004;2023-07-31T06:01:39;99233.59;;;20.88;52.60
75996;BME280;64681;49.738;9.004;2023-07-31T06:04:04;99232.81;;;20.91;52.49
75996;BME280;64681;49.738;9.004;2023-07-31T06:06:30;99233.50;;;20.99;52.10
75996;BME280;64681;49.738;9.004;2023-07-31T06:08:56;99235.06;;;20.96;52.26
75996;BME280;64681;49.738;9.004;2023-07-31T06:11:21;99239.50;;;20.79;53.20
75996;BME280;64681;49.738;9.004;2023-07-31T06:13:47;99235.31;;;20.67;53.47
75996;BME280;64681;49.738;9.004;2023-07-31T06:16:14;99236.06;;;20.71;53.16
75996;BME280;64681;49.738;9.004;2023-07-31T06:18:41;99235.09;;;20.47;53.85
75996;BME280;64681;49.738;9.004;2023-07-31T06:21:07;99227.16;;;20.22;54.29
75996;BME280;64681;49.738;9.004;2023-07-31T06:23:33;99230.25;;;20.20;54.52
75996;BME280;64681;49.738;9.004;2023-07-31T06:25:58;99236.63;;;20.52;53.48
75996;BME280;64681;49.738;9.004;2023-07-31T06:28:27;99227.38;;;20.46;54.09
75996;BME280;64681;49.738;9.004;2023-07-31T06:30:54;99231.50;;;20.61;53.83
75996;BME280;64681;49.738;9.004;2023-07-31T06:33:20;99221.22;;;20.87;53.38
75996;BME280;64681;49.738;9.004;2023-07-31T06:35:45;99224.31;;;21.24;52.38
75996;BME280;64681;49.738;9.004;2023-07-31T06:38:11;99221.09;;;21.67;51.55
75996;BME280;64681;49.738;9.004;2023-07-31T06:40:36;99211.88;;;22.87;49.68
75996;BME280;64681;49.738;9.004;2023-07-31T06:43:02;99212.66;;;25.26;43.53
75996;BME280;64681;49.738;9.004;2023-07-31T06:45:36;99214.75;;;27.08;40.45
75996;BME280;64681;49.738;9.004;2023-07-31T06:48:03;99214.53;;;27.88;38.00
75996;BME280;64681;49.738;9.004;2023-07-31T06:50:30;99213.94;;;29.08;36.12
75996;BME280;64681;49.738;9.004;2023-07-31T06:52:56;99216.22;;;27.85;37.75
75996;BME280;64681;49.738;9.004;2023-07-31T06:55:22;99229.94;;;26.52;40.07
75996;BME280;64681;49.738;9.004;2023-07-31T06:57:50;99216.47;;;26.45;39.97
75996;BME280;64681;49.738;9.004;2023-07-31T07:00:16;99224.78;;;26.19;40.38
75996;BME280;64681;49.738;9.004;2023-07-31T07:02:42;99218.28;;;25.06;43.23
75996;BME280;64681;49.738;9.004;2023-07-31T07:05:08;99227.41;;;24.53;44.18
75996;BME280;64681;49.738;9.004;2023-07-31T07:07:34;99219.75;;;23.62;46.33
75996;BME280;64681;49.738;9.004;2023-07-31T07:10:00;99218.72;;;23.35;46.89
75996;BME280;64681;49.738;9.004;2023-07-31T07:12:28;99221.59;;;23.85;45.67
75996;BME280;64681;49.738;9.004;2023-07-31T07:14:54;99223.94;;;24.03;45.78
75996;BME280;64681;49.738;9.004;2023-07-31T07:17:19;99219.84;;;23.38;46.34
75996;BME280;64681;49.738;9.004;2023-07-31T07:19:45;99218.94;;;23.81;46.26
75996;BME280;64681;49.738;9.004;2023-07-31T07:22:13;99213.13;;;24.32;46.03
75996;BME280;64681;49.738;9.004;2023-07-31T07:24:38;99216.41;;;24.73;44.79
75996;BME280;64681;49.738;9.004;2023-07-31T07:27:04;99206.16;;;24.77;45.45
75996;BME280;64681;49.738;9.004;2023-07-31T07:29:29;99199.09;;;25.22;44.19
75996;BME280;64681;49.738;9.004;2023-07-31T07:31:55;99202.53;;;25.91;42.79
75996;BME280;64681;49.738;9.004;2023-07-31T07:34:25;99199.91;;;26.61;41.03
75996;BME280;64681;49.738;9.004;2023-07-31T07:36:50;99198.69;;;26.62;41.36
75996;BME280;64681;49.738;9.004;2023-07-31T07:39:16;99203.31;;;26.88;40.67
75996;BME280;64681;49.738;9.004;2023-07-31T07:41:41;99205.88;;;26.82;40.66
75996;BME280;64681;49.738;9.004;2023-07-31T07:44:07;99207.47;;;27.14;40.03
75996;BME280;64681;49.738;9.004;2023-07-31T07:46:33;99200.78;;;26.23;41.09
75996;BME280;64681;49.738;9.004;2023-07-31T07:48:59;99195.19;;;26.27;42.20
75996;BME280;64681;49.738;9.004;2023-07-31T07:51:25;99209.53;;;25.92;42.62
75996;BME280;64681;49.738;9.004;2023-07-31T07:53:50;99203.72;;;26.03;42.46
75996;BME280;64681;49.738;9.004;2023-07-31T07:56:16;99199.13;;;26.26;41.88
75996;BME280;64681;49.738;9.004;2023-07-31T07:58:42;99191.97;;;26.41;42.06
75996;BME280;64681;49.738;9.004;2023-07-31T08:01:07;99187.50;;;25.31;43.54
75996;BME280;64681;49.738;9.004;2023-07-31T08:03:33;99184.22;;;25.23;43.93
75996;BME280;64681;49.738;9.004;2023-07-31T08:05:59;99182.59;;;25.26;43.78
75996;BME280;64681;49.738;9.004;2023-07-31T08:08:25;99187.69;;;24.19;46.71
75996;BME280;64681;49.738;9.004;2023-07-31T08:10:51;99187.38;;;24.00;47.61
75996;BME280;64681;49.738;9.004;2023-07-31T08:13:16;99175.09;;;24.25;46.53
75996;BME280;64681;49.738;9.004;2023-07-31T08:15:42;99185.72;;;23.86;47.42
75996;BME280;64681;49.738;9.004;2023-07-31T08:18:08;99176.03;;;23.65;47.80
75996;BME280;64681;49.738;9.004;2023-07-31T08:20:34;99178.31;;;24.03;46.38
75996;BME280;64681;49.738;9.004;2023-07-31T08:23:00;99176.31;;;24.70;46.08
75996;BME280;64681;49.738;9.004;2023-07-31T08:25:25;99184.78;;;25.31;45.40
75996;BME280;64681;49.738;9.004;2023-07-31T08:27:51;99184.47;;;26.19;44.37
75996;BME280;64681;49.738;9.004;2023-07-31T08:30:18;99181.63;;;27.25;41.23
75996;BME280;64681;49.738;9.004;2023-07-31T08:32:44;99189.97;;;28.53;37.95
75996;BME280;64681;49.738;9.004;2023-07-31T08:35:10;99178.66;;;28.23;38.33
75996;BME280;64681;49.738;9.004;2023-07-31T08:37:37;99171.06;;;28.46;38.02
75996;BME280;64681;49.738;9.004;2023-07-31T08:40:04;99167.28;;;27.84;38.65
75996;BME280;64681;49.738;9.004;2023-07-31T08:42:30;99162.66;;;27.71;39.32
75996;BME280;64681;49.738;9.004;2023-07-31T08:44:56;99167.84;;;26.49;41.61
75996;BME280;64681;49.738;9.004;2023-07-31T08:47:22;99168.28;;;27.05;41.13
75996;BME280;64681;49.738;9.004;2023-07-31T08:49:49;99144.78;;;27.57;39.94
75996;BME280;64681;49.738;9.004;2023-07-31T08:52:15;99137.97;;;29.20;37.45
75996;BME280;64681;49.738;9.004;2023-07-31T08:54:41;99143.84;;;30.43;35.80
75996;BME280;64681;49.738;9.004;2023-07-31T08:57:07;99136.88;;;30.57;34.37
75996;BME280;64681;49.738;9.004;2023-07-31T08:59:34;99128.22;;;31.75;31.98
75996;BME280;64681;49.738;9.004;2023-07-31T09:02:08;99136.28;;;32.20;31.66
75996;BME280;64681;49.738;9.004;2023-07-31T09:04:34;99124.09;;;32.27;31.50
75996;BME280;64681;49.738;9.004;2023-07-31T09:07:02;99138.56;;;31.45;32.17
75996;BME280;64681;49.738;9.004;2023-07-31T09:09:31;99126.56;;;31.12;33.71
75996;BME280;64681;49.738;9.004;2023-07-31T09:11:57;99123.59;;;30.71;34.07
75996;BME280;64681;49.738;9.004;2023-07-31T09:14:25;99125.78;;;30.67;34.09
75996;BME280;64681;49.738;9.004;2023-07-31T09:16:52;99119.25;;;29.43;35.36
75996;BME280;64681;49.738;9.004;2023-07-31T09:19:43;99117.84;;;29.57;36.02
75996;BME280;64681;49.738;9.004;2023-07-31T09:22:09;99132.16;;;29.61;35.85
75996;BME280;64681;49.738;9.004;2023-07-31T09:24:35;99122.38;;;28.09;38.21
75996;BME280;64681;49.738;9.004;2023-07-31T09:27:01;99126.34;;;28.17;38.33
75996;BME280;64681;49.738;9.004;2023-07-31T09:29:28;99118.25;;;28.14;38.41
75996;BME280;64681;49.738;9.004;2023-07-31T09:31:55;99121.28;;;28.62;37.73
75996;BME280;64681;49.738;9.004;2023-07-31T09:34:30;99115.50;;;28.60;37.79
75996;BME280;64681;49.738;9.004;2023-07-31T09:36:58;99111.84;;;28.26;37.25
75996;BME280;64681;49.738;9.004;2023-07-31T09:39:26;99119.25;;;28.90;36.95
75996;BME280;64681;49.738;9.004;2023-07-31T09:41:55;99119.25;;;27.98;38.03
75996;BME280;64681;49.738;9.004;2023-07-31T09:44:21;99108.47;;;28.50;37.44
75996;BME280;64681;49.738;9.004;2023-07-31T09:46:47;99112.19;;;27.69;38.31
75996;BME280;64681;49.738;9.004;2023-07-31T09:49:14;99111.25;;;27.53;39.20
75996;BME280;64681;49.738;9.004;2023-07-31T09:51:43;99110.72;;;27.86;38.56
75996;BME280;64681;49.738;9.004;2023-07-31T09:56:38;99101.72;;;27.04;40.04
75996;BME280;64681;49.738;9.004;2023-07-31T09:59:07;99105.72;;;27.44;39.62
75996;BME280;64681;49.738;9.004;2023-07-31T10:01:36;99111.31;;;27.31;39.55
75996;BME280;64681;49.738;9.004;2023-07-31T10:04:04;99094.28;;;26.60;40.77
75996;BME280;64681;49.738;9.004;2023-07-31T10:06:31;99091.25;;;26.58;39.96
75996;BME280;64681;49.738;9.004;2023-07-31T10:08:59;99089.25;;;26.14;41.09
75996;BME280;64681;49.738;9.004;2023-07-31T10:11:27;99095.47;;;26.15;41.24
75996;BME280;64681;49.738;9.004;2023-07-31T10:13:54;99090.16;;;26.55;41.47
75996;BME280;64681;49.738;9.004;2023-07-31T10:16:21;99089.16;;;26.62;40.80
75996;BME280;64681;49.738;9.004;2023-07-31T10:18:47;99077.94;;;26.25;41.13
75996;BME280;64681;49.738;9.004;2023-07-31T10:21:15;99090.06;;;25.89;41.96
75996;BME280;64681;49.738;9.004;2023-07-31T10:23:42;99082.56;;;26.15;41.32
75996;BME280;64681;49.738;9.004;2023-07-31T10:26:11;99071.09;;;25.47;43.31
75996;BME280;64681;49.738;9.004;2023-07-31T10:28:39;99074.59;;;24.66;45.41
75996;BME280;64681;49.738;9.004;2023-07-31T10:31:06;99069.19;;;24.20;45.24
75996;BME280;64681;49.738;9.004;2023-07-31T10:33:32;99077.47;;;24.75;45.51
75996;BME280;64681;49.738;9.004;2023-07-31T10:36:16;99080.91;;;24.63;45.69
75996;BME280;64681;49.738;9.004;2023-07-31T10:38:42;99065.03;;;25.00;42.99
75996;BME280;64681;49.738;9.004;2023-07-31T10:41:09;99060.56;;;25.32;43.40
75996;BME280;64681;49.738;9.004;2023-07-31T10:43:36;99065.03;;;25.78;44.22
75996;BME280;64681;49.738;9.004;2023-07-31T10:46:15;99065.22;;;25.83;43.70
75996;BME280;64681;49.738;9.004;2023-07-31T10:48:41;99060.28;;;26.48;42.56
75996;BME280;64681;49.738;9.004;2023-07-31T10:51:09;99063.75;;;26.62;41.26
75996;BME280;64681;49.738;9.004;2023-07-31T10:53:36;99065.53;;;26.78;41.56
75996;BME280;64681;49.738;9.004;2023-07-31T10:56:07;99049.97;;;27.06;40.58
75996;BME280;64681;49.738;9.004;2023-07-31T10:58:33;99060.50;;;26.32;42.14
75996;BME280;64681;49.738;9.004;2023-07-31T11:01:02;99054.00;;;25.68;44.33
75996;BME280;64681;49.738;9.004;2023-07-31T11:03:47;99041.19;;;26.13;43.82
75996;BME280;64681;49.738;9.004;2023-07-31T11:06:19;99057.50;;;26.39;42.10
75996;BME280;64681;49.738;9.004;2023-07-31T11:08:47;99051.66;;;26.50;41.54
75996;BME280;64681;49.738;9.004;2023-07-31T11:11:18;99042.84;;;26.33;42.75
75996;BME280;64681;49.738;9.004;2023-07-31T11:13:52;99049.09;;;26.33;42.30
75996;BME280;64681;49.738;9.004;2023-07-31T11:16:23;99047.94;;;26.21;42.83
75996;BME280;64681;49.738;9.004;2023-07-31T11:18:50;99049.34;;;25.17;44.88
75996;BME280;64681;49.738;9.004;2023-07-31T11:21:25;99036.97;;;25.51;44.30
75996;BME280;64681;49.738;9.004;2023-07-31T11:23:53;99038.81;;;25.16;45.98
75996;BME280;64681;49.738;9.004;2023-07-31T11:26:24;99030.97;;;25.91;44.46
75996;BME280;64681;49.738;9.004;2023-07-31T11:28:50;99034.75;;;26.29;42.27
75996;BME280;64681;49.738;9.004;2023-07-31T11:31:17;99032.09;;;26.61;40.25
75996;BME280;64681;49.738;9.004;2023-07-31T11:33:43;99043.88;;;26.26;41.66
75996;BME280;64681;49.738;9.004;2023-07-31T11:36:20;99027.78;;;26.28;42.26
75996;BME280;64681;49.738;9.004;2023-07-31T11:38:46;99024.94;;;26.85;42.28
75996;BME280;64681;49.738;9.004;2023-07-31T11:41:15;99029.91;;;26.55;41.72
75996;BME280;64681;49.738;9.004;2023-07-31T11:43:43;99014.72;;;26.32;42.28
75996;BME280;64681;49.738;9.004;2023-07-31T11:46:09;99014.50;;;26.04;43.72
75996;BME280;64681;49.738;9.004;2023-07-31T11:48:36;99021.34;;;26.44;42.51
75996;BME280;64681;49.738;9.004;2023-07-31T11:51:05;99021.09;;;26.83;42.67
75996;BME280;64681;49.738;9.004;2023-07-31T11:56:08;99008.16;;;26.07;43.51
75996;BME280;64681;49.738;9.004;2023-07-31T11:58:37;99026.84;;;25.74;45.42
75996;BME280;64681;49.738;9.004;2023-07-31T12:01:04;99014.97;;;25.55;45.19
75996;BME280;64681;49.738;9.004;2023-07-31T12:03:31;99014.34;;;24.99;46.45
75996;BME280;64681;49.738;9.004;2023-07-31T12:05:58;99013.63;;;24.43;48.60
75996;BME280;64681;49.738;9.004;2023-07-31T12:08:25;99014.34;;;25.12;48.83
75996;BME280;64681;49.738;9.004;2023-07-31T12:10:52;99018.16;;;25.27;46.96
75996;BME280;64681;49.738;9.004;2023-07-31T12:13:25;99018.03;;;25.57;47.21
75996;BME280;64681;49.738;9.004;2023-07-31T12:15:57;98997.63;;;26.06;44.50
75996;BME280;64681;49.738;9.004;2023-07-31T12:18:25;98973.66;;;26.10;44.19
75996;BME280;64681;49.738;9.004;2023-07-31T12:20:56;98982.34;;;26.31;44.23
75996;BME280;64681;49.738;9.004;2023-07-31T12:23:30;98977.91;;;26.87;42.69
75996;BME280;64681;49.738;9.004;2023-07-31T12:26:12;98972.56;;;26.83;41.98
75996;BME280;64681;49.738;9.004;2023-07-31T12:28:46;98971.91;;;27.11;42.08
75996;BME280;64681;49.738;9.004;2023-07-31T12:31:17;98967.38;;;27.36;43.28
75996;BME280;64681;49.738;9.004;2023-07-31T12:33:46;98965.81;;;27.16;41.71
75996;BME280;64681;49.738;9.004;2023-07-31T12:36:14;98957.47;;;26.79;42.08
75996;BME280;64681;49.738;9.004;2023-07-31T12:38:41;98963.19;;;27.03;41.53
75996;BME280;64681;49.738;9.004;2023-07-31T12:41:07;98964.53;;;27.58;42.55
75996;BME280;64681;49.738;9.004;2023-07-31T12:43:34;98964.19;;;28.30;38.90
75996;BME280;64681;49.738;9.004;2023-07-31T12:46:00;98957.00;;;28.05;40.55
75996;BME280;64681;49.738;9.004;2023-07-31T12:48:26;98953.22;;;28.11;40.04
75996;BME280;64681;49.738;9.004;2023-07-31T12:50:52;98977.78;;;28.15;38.70
75996;BME280;64681;49.738;9.004;2023-07-31T12:53:17;98948.69;;;27.53;40.19
75996;BME280;64681;49.738;9.004;2023-07-31T12:55:43;98952.19;;;27.81;39.79
75996;BME280;64681;49.738;9.004;2023-07-31T12:58:09;98947.59;;;27.87;38.60
75996;BME280;64681;49.738;9.004;2023-07-31T13:00:35;98947.91;;;27.80;40.48
75996;BME280;64681;49.738;9.004;2023-07-31T13:03:01;98943.34;;;27.58;40.76
75996;BME280;64681;49.738;9.004;2023-07-31T13:05:27;98937.38;;;28.16;39.61